Monday, June 25, 2018, 12:21 AM EDT
Back to Local

KSFM, Sanford, Sanford Regional Airport

Location: Sanford, ME, United States Lat: 43.4
Local Time: 12:21 AM EDT ( 4:21 GMT) Lon: -70.717
Time Zone: US/Eastern Elev: 242 ft

Show me the last for .
Show Decoded

2018-06-25 00:06 METAR KSFM 250406Z AUTO 35006KT 9SM -RA SCT026 OVC038 18/17 A2981 RMK AO2 P0000
                 =
2018-06-24 23:29 METAR KSFM 250329Z AUTO 03003KT 10SM -RA OVC030 18/17 A2981 RMK AO2 P0000 =
2018-06-24 22:56 METAR KSFM 250256Z AUTO 00000KT 10SM -RA OVC024 18/17 A2982 RMK AO2 RAE01B30
                 SLP098 P0000 60000 T01780167 58004 =
2018-06-24 21:56 METAR KSFM 250156Z AUTO 05003KT 10SM -RA OVC022 18/17 A2984 RMK AO2 RAB51 SLP105
                 P0000 T01780167 =
2018-06-24 20:56 METAR KSFM 250056Z AUTO 07003KT 10SM OVC022 18/17 A2983 RMK AO2 RAE03B38E53
                 SLP103 P0000 T01780167 TSNO =
2018-06-24 19:56 METAR KSFM 242356Z AUTO 04004KT 10SM -RA BKN022 OVC028 19/17 A2983 RMK AO2 RAB07
                 SLP102 P0000 60000 T01890172 10217 20189 53009 =
2018-06-24 19:47 METAR KSFM 242347Z AUTO 04005KT 10SM -RA SCT020 BKN026 OVC033 19/17 A2982 RMK
                 AO2 RAB07 P0000 =
2018-06-24 18:56 METAR KSFM 242256Z AUTO 09003KT 10SM OVC030 20/17 A2981 RMK AO2 SLP099 T02000167
                 =
2018-06-24 17:56 METAR KSFM 242156Z AUTO 10003KT 10SM OVC038 20/17 A2980 RMK AO2 SLP096 T02000167
                 =
2018-06-24 16:56 METAR KSFM 242056Z AUTO 10005KT 10SM BKN032 21/17 A2980 RMK AO2 SLP094 T02110172
                 53002 =
2018-06-24 15:56 METAR KSFM 241956Z AUTO 08005KT 10SM OVC026 22/17 A2980 RMK AO2 SLP093 T02170172
                 =
2018-06-24 14:56 METAR KSFM 241856Z AUTO 08003KT 10SM OVC022 21/17 A2980 RMK AO2 SLP093 T02060167
                 =
2018-06-24 13:56 METAR KSFM 241756Z AUTO VRB03KT 10SM OVC022 21/17 A2980 RMK AO2 SLP093 T02060167
                 10222 20161 58006 =
2018-06-24 12:56 METAR KSFM 241656Z AUTO 00000KT 10SM OVC024 22/16 A2981 RMK AO2 SLP096 T02170161
                 =
2018-06-24 11:56 METAR KSFM 241556Z AUTO 00000KT 10SM OVC022 22/16 A2981 RMK AO2 SLP095 T02170161
                 =
2018-06-24 10:56 METAR KSFM 241456Z AUTO VRB03KT 10SM OVC018 21/15 A2981 RMK AO2 SLP099 T02060150
                 53001 =
2018-06-24 09:56 METAR KSFM 241356Z AUTO VRB03KT 10SM BKN018 19/14 A2981 RMK AO2 SLP096 T01940139
                 =
2018-06-24 09:51 METAR KSFM 241351Z AUTO 22004KT 10SM BKN018 19/14 A2981 RMK AO2 =
2018-06-24 09:36 METAR KSFM 241336Z AUTO VRB05KT 10SM FEW001 18/13 A2981 RMK AO2 =
2018-06-24 08:56 METAR KSFM 241256Z AUTO 28005KT 10SM FEW070 18/13 A2981 RMK AO2 SLP097 T01830133
                 =
2018-06-24 08:32 METAR KSFM 241232Z AUTO 28006KT 10SM FEW021 BKN070 17/13 A2981 RMK AO2 =
2018-06-24 07:56 METAR KSFM 241156Z AUTO 25005KT 10SM BKN019 16/12 A2980 RMK AO2 SLP093 70002
                 T01560122 10161 20117 58001 =
2018-06-24 07:45 METAR KSFM 241145Z AUTO 24006KT 10SM BKN021 16/12 A2980 RMK AO2 =
2018-06-24 07:21 METAR KSFM 241121Z AUTO 22006KT 10SM SCT021 15/12 A2980 RMK AO2 =
2018-06-24 06:56 METAR KSFM 241056Z AUTO 21004KT 10SM OVC021 13/12 A2980 RMK AO2 SLP094 T01330117
                 =
2018-06-24 06:17 METAR KSFM 241017Z AUTO 20004KT 10SM BKN028 OVC033 12/11 A2980 RMK AO2 =
2018-06-24 06:06 METAR KSFM 241006Z AUTO 20004KT 10SM FEW014 BKN030 BKN034 12/11 A2980 RMK AO2 =
2018-06-24 05:56 METAR KSFM 240956Z AUTO 20003KT 10SM SCT014 BKN029 12/11 A2980 RMK AO2 SLP095
                 T01170111 =
2018-06-24 05:41 METAR KSFM 240941Z AUTO 00000KT 10SM OVC014 12/11 A2980 RMK AO2 =
2018-06-24 04:56 METAR KSFM 240856Z AUTO 00000KT 10SM OVC016 12/11 A2980 RMK AO2 SLP093 T01170111
                 56009 =
2018-06-24 03:56 METAR KSFM 240756Z AUTO 00000KT 10SM BKN020 12/11 A2980 RMK AO2 SLP093 T01170111
                 =
2018-06-24 02:56 METAR KSFM 240656Z AUTO 00000KT 10SM OVC018 12/12 A2981 RMK AO2 SLP097 T01220117
                 =
2018-06-24 02:08 METAR KSFM 240608Z AUTO 22003KT 10SM OVC016 12/11 A2982 RMK AO2 =
2018-06-24 01:56 METAR KSFM 240556Z AUTO 00000KT 10SM OVC014 12/11 A2983 RMK AO2 SLP103 60000
                 T01220111 10128 20122 56011 =
2018-06-24 00:56 METAR KSFM 240456Z AUTO 00000KT 10SM OVC014 12/11 A2983 RMK AO2 RAB0358E22
                 SLP106 P0000 T01220111 =

Support USWX by starting your Amazon purchase here.